Latest Weather Observations for Burnie Port

IDT60801

Issued at 4:35 pm EDT Thursday 27 November 2014 (issued every 30 minutes, with the page automatically refreshed every 10 minutes)

About weather observations | Map of weather stations | Latest weather observations for TAS | Other Formats
Station Details ID: 091344 Name: BURNIE NTC AWS Lat: -41.05 Lon: 145.91 Height: 0.0 m
Data from the previous 72 hours. | See also: Recent months for locations in Tasmania
Date/Time
EDT
Temp
°C
App
Temp
°C
Dew
Point
Rel
Hum
%
Delta-T
°C
Wind Press
QNH
hPa
Press
MSL
hPa
Rain
since 9 am
mm
Dir
 
Spd
km/h
Gust
km/h
Spd
kts
Gust
kts
27/04:30pm 21.1 - - - - SW 19 32 10 17 1020.7 1020.7 -
27/04:00pm 20.7 - - - - SW 22 43 12 23 1021.0 1021.0 -
27/03:54pm 20.6 - - - - SSW 28 43 15 23 1021.2 1021.2 -
27/03:30pm 20.3 - - - - SSW 13 20 7 11 1021.3 1021.3 -
27/03:00pm 20.6 - - - - WSW 20 33 11 18 1021.5 1021.5 -
27/02:30pm 20.7 - - - - WSW 19 35 10 19 1021.7 1021.7 -
27/02:00pm 19.5 - - - - SW 19 32 10 17 1022.1 1022.1 -
27/01:30pm 19.7 - - - - WSW 19 35 10 19 1022.2 1022.2 -
27/01:00pm 19.0 - - - - WSW 15 28 8 15 1022.3 1022.3 -
27/12:30pm 18.0 - - - - SW 22 37 12 20 1022.5 1022.5 -
27/12:00pm 17.6 - - - - WSW 19 30 10 16 1022.6 1022.6 -
27/11:30am 16.9 - - - - SSW 26 37 14 20 1022.7 1022.7 -
27/11:00am 16.3 - - - - SSW 22 41 12 22 1023.1 1023.1 -
27/10:30am 15.6 - - - - SSW 22 30 12 16 1023.3 1023.3 -
27/10:00am 14.7 - - - - SW 22 39 12 21 1023.7 1023.7 -
27/09:30am 14.1 - - - - SW 9 15 5 8 1023.9 1023.9 -
27/09:00am 13.2 - - - - SSW 32 43 17 23 1024.1 1024.1 -
27/08:30am 12.3 - - - - SSW 24 37 13 20 1023.9 1023.9 -
27/08:00am 11.6 - - - - SSW 24 35 13 19 1023.7 1023.7 -
27/07:30am 10.5 - - - - SW 22 33 12 18 1023.5 1023.5 -
27/07:00am 10.3 - - - - SSW 20 32 11 17 1023.3 1023.3 -
27/06:30am 10.2 - - - - SSW 22 32 12 17 1023.0 1023.0 -
27/06:00am 10.3 - - - - SW 19 33 10 18 1022.7 1022.7 -
27/05:30am 10.2 - - - - SSW 19 26 10 14 1022.5 1022.5 -
27/05:00am 10.3 - - - - SSW 15 22 8 12 1022.4 1022.4 -
27/04:30am 10.5 - - - - SW 17 28 9 15 1022.3 1022.3 -
27/04:00am 10.7 - - - - SSW 20 28 11 15 1022.1 1022.1 -
27/03:30am 10.7 - - - - SSW 20 28 11 15 1022.0 1022.0 -
27/03:00am 10.8 - - - - SSW 22 32 12 17 1021.9 1021.9 -
27/02:30am 10.9 - - - - SSW 20 30 11 16 1021.7 1021.7 -
27/02:00am 11.0 - - - - SSW 26 35 14 19 1021.5 1021.5 -
27/01:30am 11.3 - - - - SSW 17 26 9 14 1021.8 1021.8 -
27/01:00am 11.3 - - - - SSW 7 19 4 10 1021.9 1021.9 -
27/12:30am 11.4 - - - - SSW 11 24 6 13 1021.9 1021.9 -
27/12:00am 11.6 - - - - SW 15 22 8 12 1021.7 1021.7 -
 
Date/Time
EDT
Temp
°C
App
Temp
°C
Dew
Point
Rel
Hum
%
Delta-T
°C
Wind Press
QNH
hPa
Press
MSL
hPa
Rain
since 9 am
mm
Dir
 
Spd
km/h
Gust
km/h
Spd
kts
Gust
kts
26/11:30pm 11.7 - - - - SW 13 19 7 10 1021.9 1021.9 -
26/11:00pm 11.8 - - - - SW 9 17 5 9 1022.0 1022.0 -
26/10:30pm 11.8 - - - - SW 9 20 5 11 1021.7 1021.7 -
26/10:00pm 12.0 - - - - SW 9 17 5 9 1021.6 1021.6 -
26/09:30pm 12.2 - - - - WSW 9 15 5 8 1021.3 1021.3 -
26/09:00pm 12.7 - - - - WSW 11 22 6 12 1021.0 1021.0 -
26/08:30pm 12.9 - - - - SW 17 33 9 18 1020.9 1020.9 -
26/08:00pm 13.4 - - - - SW 19 30 10 16 1020.5 1020.5 -
26/07:30pm 13.7 - - - - SW 28 43 15 23 1019.9 1019.9 -
26/07:00pm 14.4 - - - - SW 30 44 16 24 1019.5 1019.5 -
26/06:30pm 14.8 - - - - SW 26 43 14 23 1019.0 1019.0 -
26/06:11pm 14.9 - - - - SSW 28 46 15 25 1018.8 1018.8 -
26/06:00pm 15.4 - - - - SSW 26 37 14 20 1018.4 1018.4 -
26/05:40pm 15.6 - - - - SSW 28 48 15 26 1018.3 1018.3 -
26/05:36pm 15.5 - - - - SSW 32 48 17 26 1018.1 1018.1 -
26/05:30pm 15.8 - - - - SW 20 28 11 15 1018.2 1018.2 -
26/05:00pm 16.6 - - - - SW 24 37 13 20 1017.9 1017.9 -
26/04:30pm 16.6 - - - - WSW 22 35 12 19 1017.8 1017.8 -
26/04:00pm 16.5 - - - - WSW 17 33 9 18 1017.5 1017.5 -
26/03:30pm 15.6 - - - - SSW 33 44 18 24 1017.6 1017.6 -
26/03:09pm 16.5 - - - - SW 28 46 15 25 1017.4 1017.4 -
26/03:00pm 16.1 - - - - SW 30 43 16 23 1017.5 1017.5 -
26/02:30pm 16.1 - - - - WSW 26 41 14 22 1017.4 1017.4 -
26/02:00pm 15.8 - - - - SW 28 43 15 23 1017.3 1017.3 -
26/01:44pm 15.7 - - - - SW 28 48 15 26 1017.2 1017.2 -
26/01:30pm 15.4 - - - - SW 24 39 13 21 1017.2 1017.2 -
26/01:00pm 15.6 - - - - SW 22 33 12 18 1017.3 1017.3 -
26/12:30pm 15.3 - - - - SW 22 33 12 18 1017.1 1017.1 -
26/12:00pm 15.3 - - - - WSW 28 48 15 26 1016.9 1016.9 -
26/11:30am 15.4 - - - - WSW 20 39 11 21 1016.8 1016.8 -
26/11:00am 15.0 - - - - WSW 22 41 12 22 1016.8 1016.8 -
26/10:30am 14.5 - - - - W 20 37 11 20 1016.5 1016.5 -
26/10:00am 13.9 - - - - WSW 28 44 15 24 1016.6 1016.6 -
26/09:30am 14.2 - - - - WSW 20 37 11 20 1016.3 1016.3 -
26/09:00am 13.7 - - - - WSW 22 41 12 22 1016.1 1016.1 -
26/08:30am 13.4 - - - - WSW 22 37 12 20 1015.8 1015.8 -
26/08:00am 13.6 - - - - WSW 15 37 8 20 1015.2 1015.2 -
26/07:30am 13.2 - - - - W 22 44 12 24 1014.9 1014.9 -
26/07:00am 13.0 - - - - W 9 20 5 11 1014.5 1014.5 -
26/06:30am 12.8 - - - - W 9 20 5 11 1014.0 1014.0 -
26/06:00am 12.5 - - - - W 13 22 7 12 1013.7 1013.7 -
26/05:30am 12.9 - - - - W 24 35 13 19 1013.3 1013.3 -
26/05:00am 12.8 - - - - WNW 19 32 10 17 1013.1 1013.1 -
26/04:30am 12.9 - - - - WNW 20 32 11 17 1012.9 1012.9 -
26/04:00am 12.4 - - - - WNW 19 33 10 18 1012.9 1012.9 -
26/03:30am 12.5 - - - - WNW 19 30 10 16 1013.1 1013.1 -
26/03:00am 12.3 - - - - WNW 24 37 13 20 1013.4 1013.4 -
26/02:30am 12.3 - - - - WNW 26 37 14 20 1013.7 1013.7 -
26/02:00am 12.2 - - - - WNW 26 35 14 19 1014.1 1014.1 -
26/01:30am 12.4 - - - - WNW 17 28 9 15 1014.3 1014.3 -
26/01:00am 12.6 - - - - WNW 20 35 11 19 1014.5 1014.5 -
26/12:30am 12.4 - - - - WNW 20 33 11 18 1014.8 1014.8 -
26/12:00am 12.2 - - - - W 19 32 10 17 1014.8 1014.8 -
 
Date/Time
EDT
Temp
°C
App
Temp
°C
Dew
Point
Rel
Hum
%
Delta-T
°C
Wind Press
QNH
hPa
Press
MSL
hPa
Rain
since 9 am
mm
Dir
 
Spd
km/h
Gust
km/h
Spd
kts
Gust
kts
25/11:30pm 12.0 - - - - W 19 28 10 15 1015.3 1015.3 -
25/11:00pm 12.2 - - - - WNW 17 28 9 15 1015.5 1015.5 -
25/10:30pm 12.3 - - - - W 17 26 9 14 1015.4 1015.4 -
25/10:00pm 12.4 - - - - WNW 15 26 8 14 1015.7 1015.7 -
25/09:30pm 12.5 - - - - W 17 28 9 15 1015.6 1015.6 -
25/09:00pm 12.5 - - - - W 11 22 6 12 1015.3 1015.3 -
25/08:30pm 12.6 - - - - W 19 44 10 24 1015.2 1015.2 -
25/08:00pm 12.9 - - - - W 24 43 13 23 1015.0 1015.0 -
25/07:30pm 13.0 - - - - W 20 33 11 18 1014.6 1014.6 -
25/07:00pm 13.5 - - - - WSW 26 46 14 25 1014.3 1014.3 -
25/06:51pm 13.7 - - - - W 28 48 15 26 1014.2 1014.2 -
25/06:30pm 14.4 - - - - W 22 41 12 22 1013.6 1013.6 -
25/06:00pm 14.7 - - - - W 22 41 12 22 1013.6 1013.6 -
25/05:35pm 14.8 - - - - W 28 50 15 27 1013.2 1013.2 -
25/05:30pm 15.0 - - - - W 26 44 14 24 1013.1 1013.1 -
25/05:03pm 15.1 - - - - W 28 46 15 25 1013.1 1013.1 -
25/05:00pm 15.1 - - - - WSW 26 43 14 23 1013.0 1013.0 -
25/04:31pm 15.5 - - - - W 28 48 15 26 1012.9 1012.9 -
25/04:30pm 15.2 - - - - W 30 48 16 26 1012.8 1012.8 -
25/04:00pm 15.7 - - - - W 32 50 17 27 1012.7 1012.7 -
25/03:36pm 16.1 - - - - W 28 48 15 26 1012.5 1012.5 -
25/03:30pm 15.6 - - - - W 26 46 14 25 1012.5 1012.5 -
25/03:00pm 16.2 - - - - W 30 48 16 26 1012.2 1012.2 -
25/02:32pm 16.1 - - - - W 28 46 15 25 1012.0 1012.0 -
25/02:30pm 15.9 - - - - W 30 46 16 25 1012.1 1012.1 -
25/02:11pm 15.8 - - - - W 28 46 15 25 1012.0 1012.0 -
25/02:00pm 16.4 - - - - W 24 46 13 25 1011.9 1011.9 -
25/01:37pm 16.5 - - - - WNW 28 46 15 25 1011.5 1011.5 -
25/01:30pm 16.9 - - - - W 28 44 15 24 1011.5 1011.5 -
25/01:14pm 16.7 - - - - W 28 48 15 26 1011.5 1011.5 -
25/01:00pm 16.9 - - - - W 22 44 12 24 1011.4 1011.4 -
25/12:30pm 15.7 - - - - W 28 46 15 25 1011.7 1011.7 -
25/12:00pm 16.4 - - - - W 28 46 15 25 1011.6 1011.6 -
25/11:30am 15.8 - - - - WSW 28 48 15 26 1011.1 1011.1 -
25/11:01am 15.8 - - - - W 28 46 15 25 1010.7 1010.7 -
25/11:00am 15.5 - - - - WSW 26 46 14 25 1010.7 1010.7 -
25/10:30am 15.4 - - - - W 30 48 16 26 1010.5 1010.5 -
25/10:22am 15.5 - - - - WSW 28 48 15 26 1010.2 1010.2 -
25/10:00am 14.8 - - - - WSW 26 44 14 24 1010.2 1010.2 -
25/09:30am 14.4 - - - - WSW 28 46 15 25 1010.0 1010.0 -
25/09:18am 13.8 - - - - WSW 28 48 15 26 1010.1 1010.1 -
25/09:00am 13.5 - - - - W 19 30 10 16 1009.7 1009.7 -
25/08:30am 13.2 - - - - W 30 48 16 26 1009.7 1009.7 -
25/08:21am 13.1 - - - - W 28 48 15 26 1009.6 1009.6 -
25/08:00am 13.2 - - - - W 22 37 12 20 1009.2 1009.2 -
25/07:30am 12.9 - - - - W 19 32 10 17 1008.6 1008.6 -
25/07:00am 12.6 - - - - W 24 37 13 20 1008.2 1008.2 -
25/06:30am 11.9 - - - - W 17 32 9 17 1007.9 1007.9 -
25/06:00am 11.3 - - - - W 15 26 8 14 1007.4 1007.4 -
25/05:30am 11.0 - - - - WNW 13 26 7 14 1007.1 1007.1 -
25/05:00am 10.8 - - - - W 19 30 10 16 1006.7 1006.7 -
25/04:30am 10.7 - - - - WNW 15 24 8 13 1006.3 1006.3 -
25/04:00am 10.3 - - - - WNW 17 22 9 12 1006.3 1006.3 -

Other Formats:

Comma delimited format used in spreadsheet applications
http://www.bom.gov.au/fwo/IDT60801/IDT60801.95963.axf

JavaScript Object Notation format (JSON) in row-major order
http://www.bom.gov.au/fwo/IDT60801/IDT60801.95963.json